createdAt,value
2019-02-28T00:05:30.925Z,8.60
2019-02-28T00:13:52.281Z,7.97
2019-02-28T00:16:35.610Z,8.00
2019-02-28T00:19:15.674Z,8.40
2019-02-28T00:24:48.234Z,8.33
2019-02-28T00:27:28.252Z,7.30
2019-02-28T00:30:08.498Z,5.77
2019-02-28T00:32:48.530Z,9.33
2019-02-28T00:41:09.354Z,8.07
2019-02-28T00:46:43.864Z,7.47
2019-02-28T00:49:24.479Z,10.07
2019-02-28T00:54:50.838Z,8.87
2019-02-28T00:57:32.162Z,6.00
2019-02-28T01:00:13.065Z,8.13
2019-02-28T01:02:54.433Z,7.57
2019-02-28T01:05:36.621Z,10.97
2019-02-28T01:08:19.094Z,6.60
2019-02-28T01:10:59.033Z,8.37
2019-02-28T01:13:40.578Z,8.83
2019-02-28T01:16:20.931Z,8.87
2019-02-28T01:19:00.898Z,8.77
2019-02-28T01:21:41.526Z,7.77
2019-02-28T01:24:21.647Z,7.67
2019-02-28T01:27:03.023Z,12.97
2019-02-28T01:29:43.154Z,11.53
2019-02-28T01:32:23.747Z,10.43
2019-02-28T01:35:06.745Z,10.37
2019-02-28T01:37:46.658Z,7.10
2019-02-28T01:40:27.056Z,6.90
2019-02-28T01:43:07.321Z,7.77
2019-02-28T01:45:47.476Z,10.80
2019-02-28T01:48:28.171Z,8.30
2019-02-28T01:51:08.343Z,7.70
2019-02-28T01:53:50.483Z,11.67
2019-02-28T01:56:34.285Z,9.53
2019-02-28T02:04:46.690Z,8.77
2019-02-28T02:07:30.507Z,8.93
2019-02-28T02:10:09.946Z,11.10
2019-02-28T02:12:50.189Z,10.03
2019-02-28T02:15:30.145Z,7.33
2019-02-28T02:18:10.721Z,9.07
2019-02-28T02:20:50.930Z,8.47
2019-02-28T02:23:31.876Z,8.83
2019-02-28T02:26:12.069Z,10.23
2019-02-28T02:28:53.397Z,10.63
2019-02-28T02:31:34.873Z,8.40
2019-02-28T02:34:15.533Z,8.93
2019-02-28T02:36:56.587Z,9.20
2019-02-28T02:39:37.167Z,10.73
2019-02-28T02:42:18.382Z,10.10
2019-02-28T02:44:58.274Z,10.63
2019-02-28T02:47:38.930Z,10.23
2019-02-28T02:50:19.694Z,9.13
2019-02-28T02:53:04.884Z,11.90
2019-02-28T02:55:42.787Z,9.00
2019-02-28T02:58:26.762Z,9.87
2019-02-28T03:01:05.513Z,9.00
2019-02-28T03:03:45.843Z,11.63
2019-02-28T03:06:26.208Z,10.80
2019-02-28T03:09:09.872Z,8.60
2019-02-28T03:11:49.379Z,12.07
2019-02-28T03:14:29.783Z,9.17
2019-02-28T03:17:11.840Z,10.10
2019-02-28T03:19:53.239Z,11.80
2019-02-28T03:22:33.874Z,13.67
2019-02-28T03:25:14.928Z,12.27
2019-02-28T03:27:56.753Z,12.97
2019-02-28T03:33:27.659Z,9.30
2019-02-28T03:36:06.075Z,11.70
2019-02-28T03:38:49.599Z,9.47
2019-02-28T03:41:29.450Z,12.50
2019-02-28T03:44:09.446Z,11.97
2019-02-28T03:49:35.382Z,9.97
2019-02-28T03:52:16.248Z,12.47
2019-02-28T03:54:57.050Z,10.17
2019-02-28T03:57:37.277Z,9.63
2019-02-28T04:00:17.650Z,11.20
2019-02-28T04:02:59.076Z,8.83
2019-02-28T04:05:39.091Z,7.60
2019-02-28T04:08:20.467Z,9.00
2019-02-28T04:11:01.804Z,10.80
2019-02-28T04:13:42.313Z,8.47
2019-02-28T04:16:22.742Z,9.80
2019-02-28T04:19:02.938Z,11.40
2019-02-28T04:21:46.284Z,10.23
2019-02-28T04:24:26.119Z,9.13
2019-02-28T04:27:07.920Z,9.00
2019-02-28T04:29:48.014Z,9.00
2019-02-28T04:32:28.671Z,10.10
2019-02-28T04:35:08.721Z,9.17
2019-02-28T04:37:49.586Z,10.17
2019-02-28T04:40:30.112Z,11.10
2019-02-28T04:43:10.864Z,8.97
2019-02-28T04:45:51.608Z,10.70
2019-02-28T04:48:31.855Z,8.27
2019-02-28T04:51:11.959Z,8.90
2019-02-28T04:53:52.957Z,9.53
2019-02-28T04:56:34.297Z,8.73
2019-02-28T04:59:14.612Z,7.50
2019-02-28T05:01:55.177Z,9.10
2019-02-28T05:04:36.074Z,10.03
2019-02-28T05:07:17.510Z,9.77
2019-02-28T05:09:57.983Z,8.30
2019-02-28T05:12:39.971Z,8.40
2019-02-28T05:15:20.380Z,7.87
2019-02-28T05:18:02.758Z,9.60
2019-02-28T05:20:45.909Z,10.43
2019-02-28T05:23:25.445Z,10.87
2019-02-28T05:26:05.660Z,8.87
2019-02-28T05:28:45.848Z,9.40
2019-02-28T05:31:27.077Z,9.30
2019-02-28T05:34:07.709Z,8.63
2019-02-28T05:36:48.142Z,8.83
2019-02-28T05:39:31.003Z,10.40
2019-02-28T05:42:11.091Z,10.17
2019-02-28T05:44:51.436Z,7.03
2019-02-28T05:47:32.427Z,10.10
2019-02-28T05:50:16.705Z,10.73
2019-02-28T05:55:46.388Z,9.30
2019-02-28T05:58:28.965Z,8.60
2019-02-28T06:01:11.990Z,8.77
2019-02-28T06:03:51.461Z,8.70
2019-02-28T06:06:31.526Z,7.67
2019-02-28T06:09:13.665Z,7.13
2019-02-28T06:11:56.742Z,7.50
2019-02-28T06:14:37.274Z,9.10
2019-02-28T06:17:20.425Z,8.33
2019-02-28T06:19:59.600Z,7.53
2019-02-28T06:31:14.330Z,15.03
2019-02-28T06:33:54.744Z,11.03
2019-02-28T06:39:31.353Z,10.97
2019-02-28T06:50:45.535Z,10.87
2019-02-28T06:56:23.236Z,10.27
2019-02-28T07:01:58.318Z,8.90
2019-02-28T07:07:31.092Z,13.17
2019-02-28T07:10:12.716Z,12.40
2019-02-28T07:12:54.227Z,11.93
2019-02-28T07:15:35.385Z,15.10
2019-02-28T07:21:09.472Z,11.30
2019-02-28T07:38:13.861Z,10.87
2019-02-28T07:40:54.513Z,13.13
2019-02-28T07:43:36.350Z,11.80
2019-02-28T07:46:20.014Z,13.63
2019-02-28T07:49:01.593Z,8.10
2019-02-28T07:51:42.332Z,13.93
2019-02-28T07:54:22.539Z,11.60
2019-02-28T07:57:04.688Z,15.10
2019-02-28T07:59:44.958Z,11.37
2019-02-28T08:02:25.234Z,13.53
2019-02-28T08:05:07.326Z,14.40
2019-02-28T08:07:52.273Z,14.17
2019-02-28T08:10:33.193Z,10.80
2019-02-28T08:13:14.888Z,14.30
2019-02-28T08:15:56.911Z,11.50
2019-02-28T08:18:38.198Z,12.73
2019-02-28T08:21:19.247Z,17.93
2019-02-28T08:24:02.507Z,12.60
2019-02-28T08:26:44.386Z,13.97
2019-02-28T08:29:24.478Z,13.40
2019-02-28T08:32:08.001Z,13.90
2019-02-28T08:34:47.207Z,13.60
2019-02-28T08:37:27.311Z,14.03
2019-02-28T08:40:08.824Z,12.73
2019-02-28T08:42:50.073Z,13.27
2019-02-28T08:45:33.475Z,13.33
2019-02-28T08:48:14.140Z,16.60
2019-02-28T08:50:55.858Z,18.37
2019-02-28T08:53:36.661Z,14.80
2019-02-28T08:56:16.970Z,17.37
2019-02-28T08:58:57.885Z,15.90
2019-02-28T09:01:40.998Z,13.33
2019-02-28T09:04:20.567Z,16.83
2019-02-28T09:07:03.492Z,11.97
2019-02-28T09:09:43.816Z,16.50
2019-02-28T09:12:23.945Z,17.07
2019-02-28T09:15:04.062Z,16.80
2019-02-28T09:17:46.270Z,19.63
2019-02-28T09:20:26.529Z,17.43
2019-02-28T09:23:07.074Z,18.43
2019-02-28T09:25:47.225Z,14.70
2019-02-28T09:28:27.533Z,17.40
2019-02-28T09:31:09.943Z,17.53
2019-02-28T09:33:51.213Z,20.20
2019-02-28T09:36:31.791Z,14.13
2019-02-28T09:39:11.889Z,18.07
2019-02-28T09:41:52.106Z,21.00
2019-02-28T09:47:17.648Z,17.07
2019-02-28T09:52:42.622Z,16.43
2019-02-28T09:55:23.356Z,17.83
2019-02-28T09:58:04.461Z,17.10
2019-02-28T10:00:46.844Z,15.77
2019-02-28T10:03:26.969Z,16.03
2019-02-28T10:06:07.813Z,15.70
2019-02-28T10:08:48.837Z,10.47
2019-02-28T10:11:31.760Z,11.97
2019-02-28T10:14:13.497Z,13.20
2019-02-28T10:16:53.584Z,10.70
2019-02-28T10:19:43.729Z,12.50
2019-02-28T10:22:17.115Z,14.10
2019-02-28T10:24:57.171Z,12.33
2019-02-28T10:27:37.052Z,12.70
2019-02-28T10:30:17.210Z,12.53
2019-02-28T10:32:57.940Z,11.93
2019-02-28T10:35:38.447Z,11.97
2019-02-28T10:38:18.407Z,11.47
2019-02-28T10:40:58.323Z,12.13
2019-02-28T10:46:25.005Z,11.83
2019-02-28T10:49:07.246Z,11.50
2019-02-28T10:51:49.783Z,10.87
2019-02-28T10:54:29.787Z,11.53
2019-02-28T10:57:09.974Z,14.93
2019-02-28T10:59:50.129Z,10.20
2019-02-28T11:02:30.287Z,14.77
2019-02-28T11:05:10.526Z,12.47
2019-02-28T11:07:50.608Z,14.23
2019-02-28T11:10:34.792Z,15.87
2019-02-28T11:13:12.852Z,12.07
2019-02-28T11:15:52.990Z,11.37
2019-02-28T11:18:33.978Z,13.33
2019-02-28T11:21:14.005Z,12.77
2019-02-28T11:23:54.649Z,10.13
2019-02-28T11:29:23.910Z,15.33
2019-02-28T11:34:53.613Z,12.57
2019-02-28T11:37:33.952Z,11.00
2019-02-28T11:40:14.204Z,12.13
2019-02-28T11:42:54.568Z,12.70
2019-02-28T11:45:34.895Z,9.93
2019-02-28T11:48:18.944Z,11.17
2019-02-28T11:50:57.343Z,13.73
2019-02-28T11:53:40.338Z,10.60
2019-02-28T11:56:20.310Z,12.37
2019-02-28T11:59:00.844Z,8.20
2019-02-28T12:01:42.482Z,9.73
2019-02-28T12:04:23.471Z,8.57
2019-02-28T12:07:03.830Z,8.93
2019-02-28T12:09:44.634Z,10.57
2019-02-28T12:12:25.184Z,10.93
2019-02-28T12:15:06.162Z,11.77
2019-02-28T12:17:47.454Z,9.53
2019-02-28T12:23:13.474Z,8.13
2019-02-28T12:25:55.759Z,8.87
2019-02-28T12:28:38.259Z,12.03
2019-02-28T12:31:18.562Z,15.13
2019-02-28T12:34:00.939Z,12.20
2019-02-28T12:36:41.393Z,11.37
2019-02-28T12:39:23.629Z,11.93
2019-02-28T12:42:03.678Z,11.43
2019-02-28T12:44:46.241Z,12.13
2019-02-28T12:50:06.011Z,11.57
2019-02-28T12:52:48.987Z,13.80
2019-02-28T12:58:08.659Z,11.70
2019-02-28T13:00:49.493Z,10.23
2019-02-28T13:03:30.459Z,13.13
2019-02-28T13:06:11.329Z,14.03
2019-02-28T13:08:53.506Z,11.40
2019-02-28T13:11:35.715Z,10.67
2019-02-28T13:14:16.123Z,13.07
2019-02-28T13:19:41.669Z,13.77
2019-02-28T13:22:24.430Z,13.43
2019-02-28T13:30:49.138Z,11.33
2019-02-28T13:33:25.953Z,12.27
2019-02-28T13:36:07.006Z,11.37
2019-02-28T13:38:49.332Z,12.57
2019-02-28T13:41:29.259Z,9.03
2019-02-28T13:44:10.072Z,13.47
2019-02-28T13:46:50.367Z,11.30
2019-02-28T13:49:30.764Z,12.70
2019-02-28T13:52:10.884Z,11.73
2019-02-28T13:54:52.998Z,12.63
2019-02-28T13:57:33.386Z,14.13
2019-02-28T14:00:13.479Z,11.83
2019-02-28T14:05:42.995Z,10.67
2019-02-28T14:11:10.103Z,15.13
2019-02-28T14:13:51.437Z,12.63
2019-02-28T14:16:31.532Z,11.43
2019-02-28T14:22:00.607Z,15.07
2019-02-28T14:24:41.026Z,12.10
2019-02-28T14:30:14.805Z,13.97
2019-02-28T14:32:54.960Z,13.17
2019-02-28T14:35:38.320Z,14.03
2019-02-28T14:38:21.054Z,13.70
2019-02-28T14:43:56.059Z,14.20
2019-02-28T14:46:37.223Z,15.90
2019-02-28T14:52:14.422Z,10.50
2019-02-28T14:57:48.813Z,11.40
2019-02-28T15:00:30.495Z,14.50
2019-02-28T15:03:11.595Z,10.33
2019-02-28T15:05:52.421Z,15.10
2019-02-28T15:08:34.982Z,10.83
2019-02-28T15:17:01.983Z,11.33
2019-02-28T15:19:42.873Z,8.90
2019-02-28T15:22:22.838Z,11.23
2019-02-28T15:30:49.038Z,10.90
2019-02-28T15:36:26.291Z,10.77
2019-02-28T15:53:35.295Z,15.83
2019-02-28T15:56:19.743Z,21.70
2019-02-28T15:58:58.165Z,19.93
2019-02-28T16:01:39.138Z,18.20
2019-02-28T16:07:08.635Z,16.50
2019-02-28T16:09:50.830Z,21.60
2019-02-28T16:12:31.106Z,19.70
2019-02-28T16:26:47.478Z,16.57
2019-02-28T16:32:24.713Z,17.67
2019-02-28T16:35:04.934Z,15.13
2019-02-28T16:37:45.274Z,20.40
2019-02-28T16:40:27.219Z,19.10
2019-02-28T16:43:07.840Z,15.60
2019-02-28T16:48:42.166Z,16.97
2019-02-28T16:51:22.491Z,18.47
2019-02-28T17:17:13.430Z,9.70
2019-02-28T17:19:53.699Z,14.10
2019-02-28T17:25:22.597Z,11.33
2019-02-28T17:30:53.700Z,8.50
2019-02-28T17:33:33.956Z,12.43
2019-02-28T17:50:47.979Z,11.93
2019-02-28T17:53:28.321Z,14.37
2019-02-28T17:56:08.624Z,15.27
2019-02-28T17:58:49.643Z,15.07
2019-02-28T18:01:30.721Z,11.57
2019-02-28T18:04:11.352Z,11.17
2019-02-28T18:09:37.909Z,13.73
2019-02-28T18:12:18.394Z,15.33
2019-02-28T18:14:58.223Z,10.53
2019-02-28T18:17:38.177Z,12.53
2019-02-28T18:20:18.344Z,12.97
2019-02-28T18:22:58.697Z,11.43
2019-02-28T18:25:39.926Z,11.20
2019-02-28T18:28:22.619Z,11.80
2019-02-28T18:31:04.308Z,12.70
2019-02-28T18:33:45.642Z,10.63
2019-02-28T18:36:25.871Z,11.00
2019-02-28T18:39:08.150Z,10.93
2019-02-28T18:41:50.845Z,10.67
2019-02-28T18:44:31.640Z,9.20
2019-02-28T18:47:13.097Z,8.03
2019-02-28T18:49:55.141Z,13.33
2019-02-28T18:52:35.428Z,7.93
2019-02-28T18:55:15.988Z,12.07
2019-02-28T18:57:55.856Z,10.27
2019-02-28T19:00:36.252Z,7.10
2019-02-28T19:03:16.672Z,7.70
2019-02-28T19:05:57.480Z,7.90
2019-02-28T19:08:37.397Z,5.43
2019-02-28T19:11:17.869Z,8.80
2019-02-28T19:13:59.783Z,7.53
2019-02-28T19:16:40.536Z,7.13
2019-02-28T19:22:14.275Z,6.93
2019-02-28T19:24:55.415Z,6.30
2019-02-28T19:27:37.152Z,6.67
2019-02-28T19:35:53.085Z,4.43
2019-02-28T19:41:22.189Z,4.30
2019-02-28T19:44:03.050Z,5.03
2019-02-28T19:46:43.044Z,4.83
2019-02-28T19:49:23.368Z,4.23
2019-02-28T19:52:04.268Z,4.13
2019-02-28T19:54:44.287Z,6.13
2019-02-28T19:57:24.596Z,6.57
2019-02-28T20:00:05.366Z,6.53
2019-02-28T20:02:45.453Z,2.97
2019-02-28T20:05:25.820Z,4.63
2019-02-28T20:08:06.034Z,4.63
2019-02-28T20:10:47.283Z,6.57
2019-02-28T20:13:29.385Z,7.83
2019-02-28T20:18:58.875Z,5.60
2019-02-28T21:31:57.934Z,5.40
2019-02-28T22:45:00.911Z,3.70
2019-02-28T22:58:56.054Z,5.73
2019-02-28T23:07:12.451Z,2.30
2019-02-28T23:21:11.878Z,4.17
2019-02-28T23:35:19.691Z,4.77
2019-02-28T23:37:59.627Z,3.63
2019-02-28T23:40:40.010Z,5.53
2019-02-28T23:54:56.256Z,4.67
2019-02-28T23:57:36.309Z,3.43
